createdAt,value
2022-08-28T00:02:19.826Z,5.18
2022-08-28T00:04:48.473Z,5.45
2022-08-28T00:07:15.291Z,5.70
2022-08-28T00:09:41.695Z,5.40
2022-08-28T00:12:08.674Z,6.57
2022-08-28T00:14:35.337Z,5.20
2022-08-28T00:17:01.753Z,5.72
2022-08-28T00:19:28.101Z,5.83
2022-08-28T00:21:54.585Z,5.45
2022-08-28T00:24:20.903Z,4.95
2022-08-28T00:27:09.206Z,4.93
2022-08-28T00:29:36.075Z,6.05
2022-08-28T00:32:02.775Z,5.90
2022-08-28T00:34:33.417Z,5.40
2022-08-28T00:37:00.412Z,5.57
2022-08-28T00:39:26.831Z,5.80
2022-08-28T00:41:57.199Z,6.20
2022-08-28T00:44:25.374Z,6.82
2022-08-28T00:49:23.468Z,6.30
2022-08-28T00:52:05.834Z,6.60
2022-08-28T00:54:34.040Z,6.65
2022-08-28T00:57:02.541Z,5.90
2022-08-28T00:59:29.639Z,6.03
2022-08-28T01:01:57.570Z,5.97
2022-08-28T01:04:25.303Z,5.68
2022-08-28T01:06:53.919Z,6.20
2022-08-28T01:09:21.891Z,5.93
2022-08-28T01:14:15.831Z,5.60
2022-08-28T01:16:43.058Z,5.80
2022-08-28T01:19:20.451Z,6.72
2022-08-28T01:22:07.952Z,5.95
2022-08-28T01:24:35.591Z,5.25
2022-08-28T01:27:01.883Z,6.05
2022-08-28T01:29:29.323Z,6.18
2022-08-28T01:31:55.679Z,5.82
2022-08-28T01:34:22.507Z,6.20
2022-08-28T01:36:48.810Z,5.50
2022-08-28T01:39:19.820Z,6.07
2022-08-28T01:41:47.919Z,6.80
2022-08-28T01:44:14.933Z,5.35
2022-08-28T01:46:44.974Z,5.60
2022-08-28T01:49:12.109Z,6.47
2022-08-28T01:51:38.844Z,5.45
2022-08-28T01:54:06.061Z,5.70
2022-08-28T01:56:32.539Z,5.40
2022-08-28T01:59:00.911Z,6.00
2022-08-28T02:01:27.239Z,5.45
2022-08-28T02:03:53.632Z,5.50
2022-08-28T02:06:20.078Z,5.78
2022-08-28T02:08:47.052Z,5.22
2022-08-28T02:11:13.379Z,5.50
2022-08-28T02:13:39.998Z,6.00
2022-08-28T02:16:08.721Z,5.53
2022-08-28T02:18:35.573Z,5.22
2022-08-28T02:21:01.873Z,5.68
2022-08-28T02:23:28.239Z,5.20
2022-08-28T02:25:54.740Z,5.15
2022-08-28T02:28:21.048Z,5.70
2022-08-28T02:30:50.130Z,5.07
2022-08-28T02:33:16.625Z,5.70
2022-08-28T02:35:43.169Z,5.20
2022-08-28T02:38:10.390Z,5.57
2022-08-28T02:40:38.239Z,5.28
2022-08-28T02:43:05.354Z,6.25
2022-08-28T02:45:31.762Z,6.05
2022-08-28T02:47:58.146Z,5.63
2022-08-28T02:50:24.748Z,4.57
2022-08-28T02:52:51.754Z,5.28
2022-08-28T02:55:21.253Z,5.95
2022-08-28T02:57:47.974Z,5.93
2022-08-28T03:00:21.591Z,5.95
2022-08-28T03:02:51.250Z,6.38
2022-08-28T03:05:19.072Z,6.10
2022-08-28T03:07:45.399Z,6.28
2022-08-28T03:10:11.841Z,5.85
2022-08-28T03:12:39.322Z,6.07
2022-08-28T03:15:07.547Z,5.45
2022-08-28T03:17:34.393Z,5.28
2022-08-28T03:20:00.700Z,5.85
2022-08-28T03:22:45.616Z,5.20
2022-08-28T03:25:13.601Z,5.40
2022-08-28T03:27:39.903Z,5.70
2022-08-28T03:30:07.929Z,5.25
2022-08-28T03:32:34.840Z,4.90
2022-08-28T03:35:01.480Z,5.43
2022-08-28T03:37:27.935Z,5.28
2022-08-28T03:39:54.317Z,5.37
2022-08-28T03:42:20.654Z,5.03
2022-08-28T03:44:50.260Z,5.05
2022-08-28T03:47:18.867Z,5.97
2022-08-28T03:49:55.488Z,4.60
2022-08-28T03:52:22.177Z,5.40
2022-08-28T03:54:48.607Z,5.85
2022-08-28T03:57:19.731Z,5.57
2022-08-28T03:59:48.331Z,5.13
2022-08-28T04:02:14.763Z,5.25
2022-08-28T04:04:41.084Z,5.60
2022-08-28T04:07:07.757Z,5.65
2022-08-28T04:09:34.226Z,5.80
2022-08-28T04:12:00.664Z,5.15
2022-08-28T04:14:26.932Z,5.27
2022-08-28T04:16:53.385Z,5.60
2022-08-28T04:19:19.946Z,5.40
2022-08-28T04:21:48.469Z,5.67
2022-08-28T04:24:14.825Z,5.13
2022-08-28T04:26:42.006Z,5.28
2022-08-28T04:29:08.405Z,6.03
2022-08-28T04:31:35.350Z,5.93
2022-08-28T04:34:02.311Z,6.32
2022-08-28T04:36:28.902Z,5.93
2022-08-28T04:38:58.841Z,6.63
2022-08-28T04:41:25.569Z,6.05
2022-08-28T04:43:52.810Z,5.70
2022-08-28T04:46:19.693Z,6.05
2022-08-28T04:48:46.066Z,5.45
2022-08-28T04:51:14.083Z,5.10
2022-08-28T04:53:41.027Z,5.65
2022-08-28T04:56:09.472Z,5.93
2022-08-28T04:58:35.845Z,5.07
2022-08-28T05:01:10.115Z,5.03
2022-08-28T05:03:36.530Z,5.82
2022-08-28T05:06:03.766Z,5.40
2022-08-28T05:08:30.371Z,5.22
2022-08-28T05:10:57.981Z,6.00
2022-08-28T05:13:24.485Z,5.45
2022-08-28T05:16:03.154Z,5.90
2022-08-28T05:18:29.722Z,6.00
2022-08-28T05:20:56.070Z,6.05
2022-08-28T05:23:25.605Z,5.68
2022-08-28T05:25:52.153Z,5.72
2022-08-28T05:28:19.045Z,6.18
2022-08-28T05:30:45.704Z,5.78
2022-08-28T05:33:13.219Z,6.45
2022-08-28T05:35:43.277Z,6.72
2022-08-28T05:38:10.244Z,5.85
2022-08-28T05:40:49.119Z,6.30
2022-08-28T05:43:16.470Z,6.35
2022-08-28T05:45:42.790Z,7.30
2022-08-28T05:48:09.431Z,5.85
2022-08-28T05:50:37.532Z,6.68
2022-08-28T05:53:03.859Z,5.80
2022-08-28T05:55:30.163Z,6.00
2022-08-28T05:58:18.519Z,5.78
2022-08-28T06:00:44.852Z,5.47
2022-08-28T06:03:13.889Z,5.78
2022-08-28T06:05:40.174Z,5.22
2022-08-28T06:08:06.783Z,5.28
2022-08-28T06:10:33.504Z,5.20
2022-08-28T06:15:27.277Z,5.65
2022-08-28T06:17:53.725Z,4.60
2022-08-28T06:20:20.878Z,4.27
2022-08-28T06:22:49.611Z,4.35
2022-08-28T06:25:15.944Z,4.47
2022-08-28T06:27:42.381Z,5.20
2022-08-28T06:30:09.153Z,4.50
2022-08-28T06:32:35.430Z,4.50
2022-08-28T06:35:01.730Z,4.00
2022-08-28T06:37:28.014Z,4.10
2022-08-28T06:39:54.357Z,4.05
2022-08-28T06:42:20.742Z,4.23
2022-08-28T06:44:49.533Z,4.10
2022-08-28T06:47:15.988Z,3.67
2022-08-28T06:49:42.277Z,3.93
2022-08-28T06:52:08.598Z,4.25
2022-08-28T06:54:35.011Z,3.73
2022-08-28T06:57:01.315Z,3.43
2022-08-28T06:59:27.724Z,3.70
2022-08-28T07:01:54.423Z,4.10
2022-08-28T07:04:21.125Z,3.90
2022-08-28T07:06:53.728Z,3.50
2022-08-28T07:09:21.026Z,3.95
2022-08-28T07:11:47.472Z,3.42
2022-08-28T07:14:13.972Z,3.30
2022-08-28T07:16:40.444Z,3.63
2022-08-28T07:19:07.509Z,3.45
2022-08-28T07:21:38.364Z,3.28
2022-08-28T07:24:06.468Z,3.25
2022-08-28T07:26:32.819Z,3.03
2022-08-28T07:29:10.363Z,3.17
2022-08-28T07:31:38.765Z,2.50
2022-08-28T07:34:05.131Z,2.70
2022-08-28T07:36:31.558Z,2.73
2022-08-28T07:38:59.333Z,3.05
2022-08-28T07:41:27.110Z,2.83
2022-08-28T07:44:16.961Z,2.55
2022-08-28T07:46:43.456Z,2.50
2022-08-28T07:49:10.445Z,2.92
2022-08-28T07:51:36.973Z,2.67
2022-08-28T07:54:03.991Z,2.35
2022-08-28T07:56:30.765Z,2.30
2022-08-28T07:58:58.236Z,2.47
2022-08-28T08:01:25.163Z,2.05
2022-08-28T08:03:57.733Z,2.83
2022-08-28T08:06:34.279Z,2.05
2022-08-28T08:09:01.152Z,2.65
2022-08-28T08:11:27.800Z,2.17
2022-08-28T08:14:03.786Z,1.95
2022-08-28T08:16:33.434Z,2.28
2022-08-28T08:19:00.465Z,2.28
2022-08-28T08:21:30.298Z,2.20
2022-08-28T08:23:57.170Z,1.88
2022-08-28T08:26:28.100Z,2.42
2022-08-28T08:28:54.753Z,1.92
2022-08-28T08:31:22.698Z,2.70
2022-08-28T08:33:50.601Z,2.10
2022-08-28T08:36:17.950Z,2.20
2022-08-28T08:38:44.865Z,2.03
2022-08-28T08:41:18.962Z,2.00
2022-08-28T08:43:50.409Z,1.92
2022-08-28T08:46:25.994Z,2.03
2022-08-28T08:48:53.139Z,2.08
2022-08-28T08:51:31.044Z,2.10
2022-08-28T08:54:07.202Z,1.95
2022-08-28T08:56:34.702Z,2.30
2022-08-28T08:59:03.227Z,1.83
2022-08-28T09:01:44.627Z,1.90
2022-08-28T09:04:29.939Z,1.80
2022-08-28T09:07:01.012Z,1.90
2022-08-28T09:09:30.582Z,2.10
2022-08-28T09:12:03.044Z,2.53
2022-08-28T09:14:29.653Z,1.77
2022-08-28T09:16:56.471Z,2.10
2022-08-28T09:19:22.944Z,1.92
2022-08-28T09:21:50.435Z,1.88
2022-08-28T09:24:21.530Z,2.15
2022-08-28T09:26:56.769Z,2.45
2022-08-28T09:29:28.521Z,1.45
2022-08-28T09:31:54.896Z,1.90
2022-08-28T09:34:24.278Z,2.30
2022-08-28T09:36:51.855Z,1.65
2022-08-28T09:39:22.816Z,1.85
2022-08-28T09:42:22.925Z,1.77
2022-08-28T09:44:52.079Z,1.90
2022-08-28T09:47:46.346Z,1.60
2022-08-28T09:50:21.854Z,1.50
2022-08-28T09:52:52.239Z,1.98
2022-08-28T09:55:38.880Z,2.28
2022-08-28T09:58:06.046Z,1.67
2022-08-28T10:00:35.250Z,2.20
2022-08-28T10:03:10.542Z,1.90
2022-08-28T10:05:55.810Z,1.92
2022-08-28T10:08:30.239Z,2.53
2022-08-28T10:11:00.521Z,1.70
2022-08-28T10:13:41.044Z,1.90
2022-08-28T10:16:31.097Z,2.05
2022-08-28T10:19:06.558Z,2.25
2022-08-28T10:21:32.803Z,1.85
2022-08-28T10:24:08.264Z,1.90
2022-08-28T10:26:37.591Z,2.13
2022-08-28T10:29:16.177Z,1.98
2022-08-28T10:31:45.745Z,1.75
2022-08-28T10:34:24.096Z,1.40
2022-08-28T10:37:00.727Z,1.90
2022-08-28T10:39:45.257Z,1.93
2022-08-28T10:42:11.651Z,1.63
2022-08-28T10:44:50.300Z,1.75
2022-08-28T10:47:17.920Z,1.80
2022-08-28T10:49:48.933Z,1.60
2022-08-28T10:52:17.271Z,1.88
2022-08-28T10:54:52.239Z,1.63
2022-08-28T10:57:39.560Z,1.80
2022-08-28T11:00:14.785Z,2.42
2022-08-28T11:02:43.330Z,1.98
2022-08-28T11:05:11.174Z,1.80
2022-08-28T11:07:39.999Z,1.55
2022-08-28T11:10:21.943Z,1.70
2022-08-28T11:12:49.696Z,1.40
2022-08-28T11:15:36.449Z,2.15
2022-08-28T11:18:15.898Z,1.92
2022-08-28T11:20:43.279Z,1.45
2022-08-28T11:23:17.217Z,1.80
2022-08-28T11:25:49.943Z,1.60
2022-08-28T11:28:17.946Z,1.60
2022-08-28T11:30:49.169Z,1.83
2022-08-28T11:33:34.458Z,1.90
2022-08-28T11:36:00.827Z,1.65
2022-08-28T11:38:42.404Z,1.90
2022-08-28T11:41:17.895Z,1.27
2022-08-28T11:43:49.855Z,1.50
2022-08-28T11:46:22.150Z,1.55
2022-08-28T11:48:57.728Z,3.38
2022-08-28T11:51:42.999Z,1.55
2022-08-28T11:54:20.798Z,2.03
2022-08-28T11:57:02.221Z,1.65
2022-08-28T11:59:34.898Z,1.80
2022-08-28T12:02:20.879Z,1.52
2022-08-28T12:04:50.445Z,1.65
2022-08-28T12:07:19.147Z,1.95
2022-08-28T12:09:47.629Z,1.70
2022-08-28T12:12:22.966Z,1.50
2022-08-28T12:14:55.338Z,1.90
2022-08-28T12:17:21.841Z,1.80
2022-08-28T12:20:04.063Z,1.98
2022-08-28T12:22:52.950Z,1.85
2022-08-28T12:25:22.189Z,1.95
2022-08-28T12:27:49.407Z,1.50
2022-08-28T12:30:26.450Z,1.60
2022-08-28T12:35:21.009Z,1.80
2022-08-28T12:37:53.742Z,1.90
2022-08-28T12:40:26.584Z,1.42
2022-08-28T12:42:55.879Z,1.83
2022-08-28T12:45:37.459Z,1.95
2022-08-28T12:48:20.295Z,1.70
2022-08-28T12:50:47.124Z,1.98
2022-08-28T12:53:18.764Z,2.10
2022-08-28T12:55:46.623Z,1.90
2022-08-28T12:58:14.749Z,1.73
2022-08-28T13:00:50.334Z,1.60
2022-08-28T13:03:18.852Z,1.67
2022-08-28T13:05:45.141Z,1.65
2022-08-28T13:08:12.093Z,1.95
2022-08-28T13:10:40.262Z,1.90
2022-08-28T13:13:08.008Z,1.77
2022-08-28T13:15:47.986Z,2.05
2022-08-28T13:18:33.304Z,1.80
2022-08-28T13:21:13.223Z,1.83
2022-08-28T13:23:40.123Z,2.03
2022-08-28T13:26:07.289Z,1.92
2022-08-28T13:28:41.474Z,2.00
2022-08-28T13:31:22.918Z,1.67
2022-08-28T13:34:02.402Z,2.03
2022-08-28T13:36:28.881Z,1.80
2022-08-28T13:38:55.526Z,1.80
2022-08-28T13:41:22.075Z,1.90
2022-08-28T13:43:48.444Z,1.73
2022-08-28T13:46:14.771Z,1.95
2022-08-28T13:48:41.080Z,1.50
2022-08-28T13:51:10.562Z,2.00
2022-08-28T13:53:37.504Z,2.05
2022-08-28T13:56:04.138Z,1.70
2022-08-28T13:58:30.527Z,2.00
2022-08-28T14:00:56.974Z,1.92
2022-08-28T14:03:35.685Z,2.40
2022-08-28T14:06:02.858Z,2.03
2022-08-28T14:08:29.626Z,1.90
2022-08-28T14:10:55.962Z,1.95
2022-08-28T14:15:52.335Z,2.15
2022-08-28T14:18:18.708Z,2.00
2022-08-28T14:20:45.154Z,1.77
2022-08-28T14:25:45.909Z,1.63
2022-08-28T14:28:12.727Z,2.20
2022-08-28T14:30:43.340Z,2.47
2022-08-28T14:33:09.869Z,2.00
2022-08-28T14:35:40.393Z,1.90
2022-08-28T14:38:07.339Z,2.00
2022-08-28T14:40:38.315Z,1.92
2022-08-28T14:43:09.736Z,2.13
2022-08-28T14:45:46.372Z,1.55
2022-08-28T14:48:13.247Z,1.70
2022-08-28T14:50:41.015Z,1.60
2022-08-28T14:53:07.484Z,1.52
2022-08-28T14:55:38.280Z,1.67
2022-08-28T14:58:04.594Z,2.10
2022-08-28T15:00:30.939Z,1.63
2022-08-28T15:05:26.270Z,1.85
2022-08-28T15:07:52.701Z,2.08
2022-08-28T15:12:45.280Z,2.10
2022-08-28T15:15:13.471Z,1.73
2022-08-28T15:17:43.314Z,1.90
2022-08-28T15:20:10.744Z,2.00
2022-08-28T15:22:37.069Z,2.00
2022-08-28T15:25:03.756Z,1.70
2022-08-28T15:27:30.097Z,2.17
2022-08-28T15:32:22.865Z,1.65
2022-08-28T15:37:15.370Z,2.28
2022-08-28T15:40:00.642Z,1.73
2022-08-28T15:42:29.748Z,2.30
2022-08-28T15:44:56.312Z,1.77
2022-08-28T15:47:24.261Z,2.10
2022-08-28T15:52:19.123Z,1.90
2022-08-28T15:54:45.481Z,1.98
2022-08-28T15:57:11.893Z,1.73
2022-08-28T15:59:49.050Z,2.60
2022-08-28T16:02:22.510Z,2.45
2022-08-28T16:04:49.317Z,1.95
2022-08-28T16:07:18.356Z,2.00
2022-08-28T16:09:44.860Z,1.90
2022-08-28T16:12:11.152Z,1.80
2022-08-28T16:14:37.531Z,2.03
2022-08-28T16:17:06.031Z,1.80
2022-08-28T16:19:38.052Z,1.90
2022-08-28T16:24:30.575Z,2.13
2022-08-28T16:26:56.996Z,1.88
2022-08-28T16:29:23.348Z,1.88
2022-08-28T16:31:49.727Z,1.83
2022-08-28T16:34:19.679Z,1.73
2022-08-28T16:36:48.168Z,1.88
2022-08-28T16:39:14.603Z,2.00
2022-08-28T16:41:42.164Z,2.20
2022-08-28T16:44:08.604Z,1.92
2022-08-28T16:46:38.086Z,1.60
2022-08-28T16:49:05.674Z,1.70
2022-08-28T16:51:31.989Z,1.70
2022-08-28T16:53:58.486Z,1.45
2022-08-28T16:56:26.437Z,1.60
2022-08-28T16:58:53.110Z,1.77
2022-08-28T17:06:23.399Z,1.55
2022-08-28T17:08:57.381Z,1.42
2022-08-28T17:11:24.931Z,1.65
2022-08-28T17:13:51.258Z,1.42
2022-08-28T17:16:18.587Z,1.45
2022-08-28T17:18:48.138Z,1.73
2022-08-28T17:21:37.038Z,1.58
2022-08-28T17:24:03.472Z,1.50
2022-08-28T17:26:29.849Z,1.27
2022-08-28T17:28:56.172Z,1.50
2022-08-28T17:31:22.527Z,1.60
2022-08-28T17:33:48.874Z,1.50
2022-08-28T17:36:25.656Z,1.25
2022-08-28T17:39:01.509Z,1.50
2022-08-28T17:41:27.870Z,1.27
2022-08-28T17:43:54.202Z,1.40
2022-08-28T17:46:20.759Z,1.30
2022-08-28T17:48:49.446Z,1.13
2022-08-28T17:51:41.828Z,1.13
2022-08-28T17:54:08.286Z,1.50
2022-08-28T17:56:35.943Z,1.30
2022-08-28T17:59:02.615Z,1.35
2022-08-28T18:01:28.970Z,1.33
2022-08-28T18:03:55.454Z,1.20
2022-08-28T18:06:21.979Z,1.30
2022-08-28T18:08:56.853Z,1.30
2022-08-28T18:11:24.965Z,1.33
2022-08-28T18:13:51.254Z,1.63
2022-08-28T18:16:25.399Z,1.20
2022-08-28T18:18:54.072Z,1.23
2022-08-28T18:21:22.728Z,1.40
2022-08-28T18:23:49.091Z,1.85
2022-08-28T18:26:18.653Z,2.10
2022-08-28T18:28:44.981Z,1.60
2022-08-28T18:31:11.401Z,1.65
2022-08-28T18:33:38.021Z,1.25
2022-08-28T18:36:07.765Z,1.55
2022-08-28T18:38:35.535Z,1.60
2022-08-28T18:41:02.709Z,1.33
2022-08-28T18:45:55.431Z,1.50
2022-08-28T18:48:22.034Z,1.77
2022-08-28T18:50:48.446Z,1.80
2022-08-28T18:53:15.381Z,1.70
2022-08-28T18:55:42.089Z,1.50
2022-08-28T18:58:08.616Z,1.67
2022-08-28T19:00:39.406Z,1.60
2022-08-28T19:03:05.976Z,1.83
2022-08-28T19:05:33.619Z,1.58
2022-08-28T19:08:00.039Z,1.38
2022-08-28T19:10:33.451Z,1.33
2022-08-28T19:13:01.321Z,1.40
2022-08-28T19:15:28.322Z,1.65
2022-08-28T19:17:54.689Z,1.45
2022-08-28T19:20:21.155Z,2.28
2022-08-28T19:22:50.561Z,1.70
2022-08-28T19:25:27.699Z,1.90
2022-08-28T19:27:56.387Z,1.90
2022-08-28T19:30:26.453Z,1.88
2022-08-28T19:35:19.391Z,2.15
2022-08-28T19:37:52.118Z,2.10
2022-08-28T19:40:18.804Z,2.03
2022-08-28T19:42:46.666Z,2.17
2022-08-28T19:45:13.807Z,2.15
2022-08-28T19:50:08.424Z,2.28
2022-08-28T19:52:36.312Z,2.47
2022-08-28T19:55:06.049Z,2.75
2022-08-28T19:57:32.736Z,2.33
2022-08-28T20:00:00.327Z,2.25
2022-08-28T20:02:27.268Z,1.88
2022-08-28T20:04:54.509Z,1.73
2022-08-28T20:09:54.574Z,1.75
2022-08-28T20:12:20.845Z,1.60
2022-08-28T20:14:50.579Z,1.80
2022-08-28T20:17:18.770Z,1.83
2022-08-28T20:19:48.765Z,1.73
2022-08-28T20:22:15.252Z,2.03
2022-08-28T20:24:41.977Z,2.28
2022-08-28T20:27:08.256Z,1.95
2022-08-28T20:29:34.561Z,1.97
2022-08-28T20:32:01.253Z,2.20
2022-08-28T20:34:27.691Z,2.03
2022-08-28T20:36:54.057Z,1.83
2022-08-28T20:39:20.846Z,2.22
2022-08-28T20:41:47.810Z,2.20
2022-08-28T20:44:15.396Z,2.53
2022-08-28T20:46:42.261Z,1.85
2022-08-28T20:49:09.468Z,2.47
2022-08-28T20:51:56.208Z,1.92
2022-08-28T20:54:24.444Z,2.10
2022-08-28T20:56:51.516Z,2.10
2022-08-28T20:59:21.378Z,2.15
2022-08-28T21:01:49.652Z,2.30
2022-08-28T21:04:17.281Z,2.05
2022-08-28T21:06:48.883Z,2.30
2022-08-28T21:09:15.588Z,2.10
2022-08-28T21:11:42.510Z,2.10
2022-08-28T21:14:09.126Z,2.33
2022-08-28T21:16:36.255Z,2.25
2022-08-28T21:21:42.219Z,2.20
2022-08-28T21:24:13.641Z,2.15
2022-08-28T21:26:42.617Z,2.00
2022-08-28T21:29:09.128Z,2.58
2022-08-28T21:31:35.457Z,2.43
2022-08-28T21:34:02.220Z,2.83
2022-08-28T21:36:28.598Z,2.63
2022-08-28T21:38:56.165Z,2.37
2022-08-28T21:41:22.470Z,2.75
2022-08-28T21:43:48.952Z,2.25
2022-08-28T21:46:16.040Z,2.42
2022-08-28T21:48:42.373Z,2.50
2022-08-28T21:51:10.783Z,2.33
2022-08-28T21:53:37.525Z,2.25
2022-08-28T21:56:04.351Z,2.42
2022-08-28T21:58:31.844Z,2.60
2022-08-28T22:00:58.383Z,2.30
2022-08-28T22:03:26.368Z,2.88
2022-08-28T22:05:53.324Z,2.60
2022-08-28T22:08:20.516Z,2.05
2022-08-28T22:10:47.386Z,2.72
2022-08-28T22:13:14.206Z,2.17
2022-08-28T22:15:41.293Z,2.15
2022-08-28T22:18:08.375Z,2.10
2022-08-28T22:20:36.647Z,2.60
2022-08-28T22:23:12.272Z,2.33
2022-08-28T22:25:40.788Z,2.72
2022-08-28T22:28:08.010Z,2.70
2022-08-28T22:30:34.452Z,2.38
2022-08-28T22:33:01.360Z,2.25
2022-08-28T22:35:28.169Z,2.50
2022-08-28T22:37:55.001Z,2.63
2022-08-28T22:40:21.998Z,2.90
2022-08-28T22:42:50.513Z,2.25
2022-08-28T22:45:20.313Z,2.10
2022-08-28T22:47:49.729Z,2.35
2022-08-28T22:50:19.084Z,2.50
2022-08-28T22:52:49.317Z,2.47
2022-08-28T22:55:20.017Z,1.85
2022-08-28T22:57:48.527Z,2.30
2022-08-28T23:00:19.667Z,2.25
2022-08-28T23:02:47.072Z,2.28
2022-08-28T23:05:14.293Z,2.22
2022-08-28T23:07:40.615Z,2.40
2022-08-28T23:10:07.649Z,2.42
2022-08-28T23:12:37.309Z,2.50
2022-08-28T23:15:08.554Z,2.47
2022-08-28T23:17:34.869Z,2.40
2022-08-28T23:20:01.914Z,2.50
2022-08-28T23:22:28.223Z,2.00
2022-08-28T23:24:54.542Z,2.42
2022-08-28T23:27:35.887Z,2.17
2022-08-28T23:30:04.050Z,2.20
2022-08-28T23:32:30.383Z,2.45
2022-08-28T23:34:58.578Z,2.28
2022-08-28T23:37:27.701Z,2.30
2022-08-28T23:39:54.590Z,2.03
2022-08-28T23:42:20.975Z,2.45
2022-08-28T23:44:50.611Z,2.77
2022-08-28T23:47:17.221Z,2.13
2022-08-28T23:52:13.494Z,2.20
2022-08-28T23:54:39.804Z,2.55
2022-08-28T23:57:07.471Z,2.28
2022-08-28T23:59:33.923Z,2.67
